Time;durP1;ratioP1;P1;durP2;ratioP2;P2;SDS_P1;SDS_P2;PMS_P1;PMS_P2;Temp;Humidity;BMP_temperature;BMP_pressure;BME280_temperature;BME280_humidity;BME280_pressure;Samples;Min_cycle;Max_cycle;Signal;HPM_P1;HPM_P2
2021/03/06 00:00:07;;;;;;;3.67;3.37;;;24.50;48.00;;;;;;5072903;28;20459;-68
2021/03/06 00:02:33;;;;;;;4.30;3.90;;;24.50;47.80;;;;;;5072812;28;20440;-68
2021/03/06 00:05:00;;;;;;;5.70;4.20;;;24.50;47.70;;;;;;5072619;28;21078;-68
2021/03/06 00:07:27;;;;;;;4.53;3.90;;;24.50;47.70;;;;;;5072869;28;20443;-68
2021/03/06 00:09:54;;;;;;;3.90;3.43;;;24.50;47.80;;;;;;5072919;28;20439;-68
2021/03/06 00:12:20;;;;;;;4.10;3.80;;;24.50;47.90;;;;;;5072777;28;20799;-68
2021/03/06 00:14:46;;;;;;;4.00;3.70;;;24.50;47.70;;;;;;5074042;28;20454;-68
2021/03/06 00:17:13;;;;;;;4.20;3.90;;;24.50;47.70;;;;;;5076656;28;20454;-68
2021/03/06 00:19:39;;;;;;;4.07;3.67;;;24.50;47.50;;;;;;5076558;28;20444;-68
2021/03/06 00:22:05;;;;;;;4.20;3.80;;;24.50;47.70;;;;;;5076568;28;20450;-68
2021/03/06 00:24:32;;;;;;;4.10;3.80;;;24.50;47.70;;;;;;5076448;28;20463;-67
2021/03/06 00:26:59;;;;;;;4.33;3.93;;;24.50;47.80;;;;;;5076597;28;20538;-68
2021/03/06 00:29:25;;;;;;;3.60;3.23;;;24.50;47.50;;;;;;5076444;28;20519;-68
2021/03/06 00:31:51;;;;;;;4.13;3.83;;;24.50;47.50;;;;;;5076464;28;20829;-68
2021/03/06 00:34:17;;;;;;;3.53;3.23;;;24.50;47.50;;;;;;5076385;28;20961;-68
2021/03/06 00:36:44;;;;;;;3.33;3.13;;;24.40;47.40;;;;;;5076232;28;20440;-67
2021/03/06 00:39:10;;;;;;;3.80;3.40;;;24.40;47.50;;;;;;5076300;28;20960;-68
2021/03/06 00:41:37;;;;;;;4.40;4.10;;;24.40;47.50;;;;;;5076200;28;20933;-68
2021/03/06 00:44:04;;;;;;;3.63;3.33;;;24.40;48.00;;;;;;5076054;28;20516;-68
2021/03/06 00:46:30;;;;;;;3.30;3.10;;;24.40;47.30;;;;;;5076068;28;20523;-68
2021/03/06 00:48:57;;;;;;;3.30;3.00;;;24.40;47.50;;;;;;5076192;28;20442;-68
2021/03/06 00:51:23;;;;;;;4.20;3.90;;;24.40;47.30;;;;;;5076045;28;20453;-68
2021/03/06 00:53:50;;;;;;;3.63;3.33;;;24.40;47.40;;;;;;5075991;28;20474;-68
2021/03/06 00:56:16;;;;;;;4.40;4.00;;;24.40;47.40;;;;;;5075696;28;20479;-68
2021/03/06 00:58:43;;;;;;;4.70;4.07;;;24.40;47.30;;;;;;5075960;28;20449;-68
2021/03/06 01:01:12;;;;;;;3.60;3.30;;;24.40;47.30;;;;;;5075720;28;20467;-68
2021/03/06 01:03:38;;;;;;;3.23;2.93;;;24.40;47.10;;;;;;5076044;28;20453;-68
2021/03/06 01:06:05;;;;;;;3.23;2.87;;;24.40;47.20;;;;;;5075761;28;20486;-68
2021/03/06 01:08:32;;;;;;;3.37;3.17;;;24.40;47.20;;;;;;5075984;28;20436;-68
2021/03/06 01:10:59;;;;;;;3.70;3.40;;;24.40;47.30;;;;;;5075704;28;20439;-68
2021/03/06 01:13:26;;;;;;;4.23;3.93;;;24.40;47.10;;;;;;5075782;28;20511;-68
2021/03/06 01:15:53;;;;;;;3.70;3.40;;;24.40;47.40;;;;;;5075728;28;20440;-68
2021/03/06 01:18:20;;;;;;;3.63;3.33;;;24.40;47.40;;;;;;5075595;28;20499;-68
2021/03/06 01:20:49;;;;;;;4.17;3.80;;;24.40;47.30;;;;;;5075552;28;20447;-68
2021/03/06 01:23:15;;;;;;;3.60;3.30;;;24.40;47.40;;;;;;5075637;28;20443;-68
2021/03/06 01:25:42;;;;;;;3.57;3.23;;;24.40;47.50;;;;;;5075285;28;20494;-68
2021/03/06 01:28:08;;;;;;;3.10;2.90;;;24.40;47.30;;;;;;5075391;28;20498;-68
2021/03/06 01:30:34;;;;;;;3.50;3.30;;;24.40;47.50;;;;;;5075365;28;20980;-68
2021/03/06 01:33:02;;;;;;;3.07;2.87;;;24.40;47.20;;;;;;5075517;28;20439;-68
2021/03/06 01:35:29;;;;;;;3.57;3.27;;;24.40;47.20;;;;;;5075167;28;20444;-68
2021/03/06 01:37:55;;;;;;;3.23;2.97;;;24.40;47.10;;;;;;5075174;28;20446;-68
2021/03/06 01:40:27;;;;;;;4.00;3.70;;;24.40;47.00;;;;;;5075195;28;20464;-68
2021/03/06 01:42:54;;;;;;;3.00;2.80;;;24.40;47.30;;;;;;5075126;28;20444;-68
2021/03/06 01:45:21;;;;;;;3.50;3.30;;;24.40;47.40;;;;;;5074967;28;20475;-68
2021/03/06 01:47:47;;;;;;;4.17;3.87;;;24.40;47.20;;;;;;5074995;28;20443;-67
2021/03/06 01:50:25;;;;;;;3.20;2.90;;;24.40;47.20;;;;;;5074956;28;20451;-67
2021/03/06 01:52:52;;;;;;;3.60;3.40;;;24.40;47.30;;;;;;5074856;28;20485;-67
2021/03/06 01:55:25;;;;;;;3.23;3.03;;;24.40;47.30;;;;;;5074528;28;20443;-68
2021/03/06 01:57:52;;;;;;;3.40;3.10;;;24.40;47.90;;;;;;5074786;28;20546;-67
2021/03/06 02:00:20;;;;;;;3.73;3.43;;;24.40;47.00;;;;;;5074691;28;20982;-67
2021/03/06 02:02:47;;;;;;;3.37;3.07;;;24.40;47.10;;;;;;5074681;28;20476;-67
2021/03/06 02:05:15;;;;;;;3.17;2.97;;;24.40;47.10;;;;;;5074545;28;20493;-67
2021/03/06 02:07:42;;;;;;;3.20;3.00;;;24.40;47.10;;;;;;5074665;28;20443;-67
2021/03/06 02:10:09;;;;;;;3.60;3.40;;;24.40;47.00;;;;;;5074724;28;20438;-68
2021/03/06 02:12:43;;;;;;;4.03;3.67;;;24.40;47.10;;;;;;5074415;28;20450;-67
2021/03/06 02:15:16;;;;;;;3.13;2.93;;;24.40;46.90;;;;;;5074388;28;20482;-67
2021/03/06 02:17:47;;;;;;;3.20;3.00;;;24.40;47.00;;;;;;5074682;28;20449;-67
2021/03/06 02:20:38;;;;;;;3.10;2.90;;;24.40;46.90;;;;;;5074447;28;20453;-67
2021/03/06 02:23:32;;;;;;;2.70;2.53;;;24.40;47.20;;;;;;5074289;28;20450;-67
2021/03/06 02:26:25;;;;;;;4.10;3.80;;;24.40;47.20;;;;;;5074154;28;20487;-67
2021/03/06 02:29:02;;;;;;;3.50;3.20;;;24.40;47.20;;;;;;5047740;28;20447;-67
2021/03/06 02:31:32;;;;;;;3.93;3.63;;;24.40;47.30;;;;;;5074155;28;20436;-67
2021/03/06 02:34:02;;;;;;;3.33;3.13;;;24.40;47.30;;;;;;5074154;28;20440;-67
2021/03/06 02:36:31;;;;;;;2.90;2.70;;;24.40;47.10;;;;;;5073814;28;20451;-67
2021/03/06 02:39:00;;;;;;;3.13;2.90;;;24.40;47.00;;;;;;5073586;28;20444;-67
2021/03/06 02:41:26;;;;;;;2.93;2.73;;;24.40;47.10;;;;;;5073970;28;20934;-67
2021/03/06 02:43:53;;;;;;;3.27;3.07;;;24.40;47.00;;;;;;5073828;28;20490;-67
2021/03/06 02:46:24;;;;;;;3.67;3.37;;;24.40;47.40;;;;;;5073767;28;20488;-67
2021/03/06 02:48:53;;;;;;;2.83;2.63;;;24.40;47.10;;;;;;5073930;28;20531;-67
2021/03/06 02:51:20;;;;;;;3.77;3.47;;;24.40;47.00;;;;;;5074008;28;20476;-67
2021/03/06 02:53:46;;;;;;;3.20;2.90;;;24.40;47.10;;;;;;5074016;28;20487;-67
2021/03/06 02:56:13;;;;;;;2.73;2.53;;;24.40;47.00;;;;;;5073332;28;20486;-68
2021/03/06 02:58:56;;;;;;;3.40;3.20;;;24.40;47.00;;;;;;5073839;28;20491;-68
2021/03/06 03:01:29;;;;;;;3.20;3.00;;;24.40;47.40;;;;;;5073685;28;20487;-68
2021/03/06 03:04:01;;;;;;;2.97;2.77;;;24.40;47.00;;;;;;5073737;28;20438;-67
2021/03/06 03:06:33;;;;;;;3.47;3.27;;;24.40;47.70;;;;;;5073785;28;20837;-67
2021/03/06 03:09:06;;;;;;;3.10;2.90;;;24.30;47.00;;;;;;5073604;28;20440;-67
2021/03/06 03:11:45;;;;;;;2.97;2.77;;;24.40;47.00;;;;;;5073516;28;20440;-67
2021/03/06 03:14:16;;;;;;;2.93;2.73;;;24.40;47.20;;;;;;5073500;28;20447;-67
2021/03/06 03:16:50;;;;;;;3.00;2.80;;;24.40;47.10;;;;;;5073414;28;20453;-67
2021/03/06 03:19:28;;;;;;;3.07;2.80;;;24.40;47.20;;;;;;5073483;28;20440;-67
2021/03/06 03:21:57;;;;;;;3.43;3.13;;;24.40;47.20;;;;;;5073520;28;20443;-67
2021/03/06 03:24:24;;;;;;;3.20;2.90;;;24.40;47.10;;;;;;5073328;28;20532;-68
2021/03/06 03:26:52;;;;;;;2.80;2.60;;;24.40;47.30;;;;;;5073320;28;21001;-67
2021/03/06 03:29:20;;;;;;;3.17;2.97;;;24.40;47.20;;;;;;5073288;28;20439;-67
2021/03/06 03:31:50;;;;;;;3.17;2.97;;;24.40;47.20;;;;;;5073245;28;20432;-67
2021/03/06 03:34:20;;;;;;;3.13;2.87;;;24.40;47.30;;;;;;5073280;28;20511;-67
2021/03/06 03:36:48;;;;;;;3.10;2.90;;;24.40;47.40;;;;;;5073030;28;20442;-67
2021/03/06 03:39:14;;;;;;;2.60;2.40;;;24.40;47.30;;;;;;5073245;28;20791;-67
2021/03/06 03:41:41;;;;;;;3.10;2.90;;;24.40;47.30;;;;;;5073099;28;20528;-67
2021/03/06 03:44:09;;;;;;;2.90;2.70;;;24.40;47.20;;;;;;5073230;28;20432;-67
2021/03/06 03:46:39;;;;;;;3.43;3.17;;;24.40;47.00;;;;;;5073071;28;20519;-67
2021/03/06 03:49:06;;;;;;;3.13;2.90;;;24.40;47.50;;;;;;5073468;28;20516;-67
2021/03/06 03:51:34;;;;;;;3.00;2.80;;;24.40;47.30;;;;;;5077346;28;20936;-67
2021/03/06 03:54:00;;;;;;;3.17;2.90;;;24.40;47.50;;;;;;5077202;28;20441;-67
2021/03/06 03:56:27;;;;;;;2.37;2.20;;;24.40;47.60;;;;;;5077068;28;20474;-67
2021/03/06 03:58:54;;;;;;;2.50;2.30;;;24.40;47.20;;;;;;5077115;28;20455;-67
2021/03/06 04:01:20;;;;;;;3.50;3.20;;;24.40;47.30;;;;;;5077115;28;20808;-67
2021/03/06 04:03:46;;;;;;;2.90;2.70;;;24.40;47.40;;;;;;5077087;28;20940;-67
2021/03/06 04:06:13;;;;;;;3.27;2.97;;;24.40;47.50;;;;;;5076857;28;20843;-67
2021/03/06 04:08:40;;;;;;;2.60;2.40;;;24.40;47.50;;;;;;5076834;28;20481;-67
2021/03/06 04:11:06;;;;;;;2.97;2.77;;;24.40;47.30;;;;;;5076875;28;20436;-67
2021/03/06 04:13:32;;;;;;;2.73;2.53;;;24.40;47.40;;;;;;5076829;28;20447;-67
2021/03/06 04:15:59;;;;;;;2.90;2.70;;;24.40;47.40;;;;;;5076594;28;20440;-67
2021/03/06 04:18:25;;;;;;;3.00;2.80;;;24.40;47.30;;;;;;5076688;28;20428;-67
2021/03/06 04:20:51;;;;;;;2.47;2.27;;;24.40;47.30;;;;;;5076745;28;20442;-67
2021/03/06 04:23:17;;;;;;;2.93;2.73;;;24.40;47.10;;;;;;5076492;28;20446;-67
2021/03/06 04:25:45;;;;;;;3.20;2.97;;;24.40;47.10;;;;;;5076336;28;20489;-67
2021/03/06 04:28:11;;;;;;;2.47;2.27;;;24.40;47.20;;;;;;5076635;28;20439;-67
2021/03/06 04:30:37;;;;;;;2.80;2.60;;;24.40;46.90;;;;;;5076463;28;20456;-67
2021/03/06 04:33:04;;;;;;;2.87;2.67;;;24.40;47.00;;;;;;5076477;28;20436;-67
2021/03/06 04:35:30;;;;;;;2.67;2.47;;;24.40;46.90;;;;;;5076447;28;20448;-67
2021/03/06 04:37:56;;;;;;;2.73;2.53;;;24.40;47.30;;;;;;5076329;28;20443;-67
2021/03/06 04:40:23;;;;;;;2.90;2.70;;;24.40;47.10;;;;;;5076357;28;20444;-67
2021/03/06 04:42:50;;;;;;;3.20;3.00;;;24.40;47.20;;;;;;5076167;28;20435;-67
2021/03/06 04:45:18;;;;;;;2.60;2.40;;;24.30;46.90;;;;;;5075934;28;20483;-67
2021/03/06 04:47:45;;;;;;;2.50;2.30;;;24.40;47.10;;;;;;5076099;28;20492;-67
2021/03/06 04:50:13;;;;;;;2.80;2.60;;;24.40;46.60;;;;;;5076035;28;20445;-67
2021/03/06 04:52:40;;;;;;;2.40;2.20;;;24.30;46.60;;;;;;5076003;28;20497;-67
2021/03/06 04:55:07;;;;;;;2.77;2.57;;;24.40;46.80;;;;;;5075855;28;20469;-67
2021/03/06 04:57:37;;;;;;;2.33;2.13;;;24.40;46.90;;;;;;5076137;28;20492;-67
2021/03/06 05:00:07;;;;;;;2.30;2.20;;;24.40;46.90;;;;;;5075406;28;20455;-67
2021/03/06 05:02:34;;;;;;;2.60;2.43;;;24.40;46.50;;;;;;5075898;28;20439;-68
2021/03/06 05:05:00;;;;;;;3.00;2.80;;;24.30;46.50;;;;;;5075704;28;20439;-68
2021/03/06 05:07:27;;;;;;;2.30;2.20;;;24.30;46.60;;;;;;5075766;28;20441;-68
2021/03/06 05:09:53;;;;;;;2.70;2.50;;;24.30;46.70;;;;;;5075768;28;20439;-67
2021/03/06 05:12:20;;;;;;;3.00;2.70;;;24.30;47.00;;;;;;5075676;28;20946;-67
2021/03/06 05:14:46;;;;;;;2.70;2.50;;;24.40;47.00;;;;;;5075744;28;20440;-67
2021/03/06 05:17:13;;;;;;;2.87;2.67;;;24.30;46.90;;;;;;5075636;28;20440;-68
2021/03/06 05:19:39;;;;;;;2.67;2.47;;;24.30;46.90;;;;;;5075626;28;20435;-68
2021/03/06 05:22:05;;;;;;;2.50;2.33;;;24.30;47.00;;;;;;5075620;28;20440;-68
2021/03/06 05:24:32;;;;;;;2.70;2.50;;;24.30;46.70;;;;;;5075341;28;20881;-68
2021/03/06 05:27:04;;;;;;;2.43;2.23;;;24.40;46.80;;;;;;5075322;28;20834;-68
2021/03/06 05:29:33;;;;;;;2.43;2.23;;;24.30;46.90;;;;;;5075366;28;20467;-68
2021/03/06 05:32:01;;;;;;;2.20;2.03;;;24.40;47.00;;;;;;5075425;28;20443;-68
2021/03/06 05:34:28;;;;;;;2.90;2.70;;;24.40;47.30;;;;;;5075341;28;20478;-68
2021/03/06 05:36:54;;;;;;;2.40;2.23;;;24.30;46.90;;;;;;5075254;28;20448;-67
2021/03/06 05:39:21;;;;;;;2.63;2.50;;;24.40;47.10;;;;;;5075350;28;20446;-67
2021/03/06 05:41:47;;;;;;;2.67;2.47;;;24.30;47.10;;;;;;5075182;28;20435;-68
2021/03/06 05:44:15;;;;;;;2.80;2.60;;;24.30;47.80;;;;;;5074982;28;20496;-68
2021/03/06 05:46:42;;;;;;;2.43;2.23;;;24.30;47.30;;;;;;5075162;28;20488;-68
2021/03/06 05:49:08;;;;;;;2.50;2.33;;;24.30;46.70;;;;;;5075035;28;20469;-67
2021/03/06 05:51:37;;;;;;;2.73;2.53;;;24.30;46.60;;;;;;5074910;28;20447;-67
2021/03/06 05:54:08;;;;;;;2.67;2.47;;;24.30;46.60;;;;;;5074892;28;20470;-67
2021/03/06 05:56:37;;;;;;;2.50;2.30;;;24.30;46.70;;;;;;5074778;28;20475;-68
2021/03/06 05:59:04;;;;;;;3.60;2.70;;;24.30;46.60;;;;;;5074593;28;20447;-68
2021/03/06 06:01:30;;;;;;;3.37;3.10;;;24.30;46.60;;;;;;5074755;28;20459;-67
2021/03/06 06:04:00;;;;;;;2.83;2.63;;;24.30;46.60;;;;;;5074568;28;20436;-68
2021/03/06 06:06:27;;;;;;;2.83;2.63;;;24.30;46.60;;;;;;5074583;28;20578;-68
2021/03/06 06:08:55;;;;;;;2.80;2.60;;;24.30;46.60;;;;;;5074636;28;20446;-68
2021/03/06 06:11:22;;;;;;;2.60;2.40;;;24.30;46.70;;;;;;5074520;28;20447;-68
2021/03/06 06:13:48;;;;;;;3.20;2.90;;;24.30;46.70;;;;;;5073814;28;20436;-68
2021/03/06 06:16:15;;;;;;;2.53;2.33;;;24.30;46.70;;;;;;5074316;28;20443;-68
2021/03/06 06:18:42;;;;;;;2.87;2.67;;;24.40;46.70;;;;;;5074406;28;20930;-68
2021/03/06 06:21:37;;;;;;;3.00;2.80;;;24.30;46.60;;;;;;5074271;28;20444;-67
2021/03/06 06:24:06;;;;;;;3.23;2.97;;;24.30;46.60;;;;;;5074316;28;20458;-68
2021/03/06 06:26:32;;;;;;;2.53;2.33;;;24.30;46.70;;;;;;5074071;28;20489;-67
2021/03/06 06:28:58;;;;;;;3.43;3.10;;;24.30;46.70;;;;;;5074249;28;20841;-68
2021/03/06 06:31:25;;;;;;;2.80;2.60;;;24.30;46.90;;;;;;5074134;28;20466;-68
2021/03/06 06:33:52;;;;;;;3.43;2.63;;;24.30;47.00;;;;;;5074140;28;20454;-68
2021/03/06 06:36:35;;;;;;;2.80;2.60;;;24.40;46.80;;;;;;5074160;28;20449;-68
2021/03/06 06:39:03;;;;;;;3.40;2.60;;;24.30;46.80;;;;;;5073996;28;20584;-68
2021/03/06 06:41:50;;;;;;;5.10;2.90;;;24.30;46.80;;;;;;5074007;28;20491;-68
2021/03/06 06:44:17;;;;;;;4.83;2.87;;;24.40;46.90;;;;;;5073783;28;20436;-68
2021/03/06 06:46:44;;;;;;;2.83;2.63;;;24.30;46.90;;;;;;5073896;28;20487;-68
2021/03/06 06:49:10;;;;;;;2.90;2.60;;;24.30;46.90;;;;;;5073940;28;20447;-68
2021/03/06 06:51:36;;;;;;;4.30;2.60;;;24.30;47.00;;;;;;5073868;28;20439;-67
2021/03/06 06:54:10;;;;;;;2.50;2.30;;;24.30;47.00;;;;;;5073664;28;20495;-68
2021/03/06 06:56:37;;;;;;;3.67;2.77;;;24.30;46.90;;;;;;5073587;28;21063;-67
2021/03/06 06:59:05;;;;;;;5.63;2.70;;;24.30;46.70;;;;;;5073603;28;20954;-67
2021/03/06 07:01:33;;;;;;;3.00;2.80;;;24.30;46.50;;;;;;5073616;28;20433;-68
2021/03/06 07:04:04;;;;;;;3.30;3.00;;;24.30;46.30;;;;;;5073387;28;20596;-68
2021/03/06 07:06:31;;;;;;;3.57;2.57;;;24.30;46.50;;;;;;5073681;28;20886;-67
2021/03/06 07:09:10;;;;;;;2.63;2.43;;;24.30;46.30;;;;;;5073539;28;20802;-67
2021/03/06 07:11:38;;;;;;;3.10;2.90;;;24.40;46.30;;;;;;5073656;28;20439;-68
2021/03/06 07:14:06;;;;;;;3.17;2.90;;;24.40;46.50;;;;;;5073620;28;20512;-68
2021/03/06 07:16:57;;;;;;;3.83;2.90;;;24.40;46.90;;;;;;5073612;28;20436;-68
2021/03/06 07:19:26;;;;;;;5.23;3.17;;;24.40;47.80;;;;;;5073442;28;20790;-68
2021/03/06 07:21:52;;;;;;;4.40;3.13;;;24.30;48.40;;;;;;5073415;28;20783;-68
2021/03/06 07:24:18;;;;;;;7.40;3.13;;;24.40;47.90;;;;;;5073030;28;20438;-68
2021/03/06 07:26:45;;;;;;;4.77;2.90;;;24.30;47.90;;;;;;5073253;28;20486;-68
2021/03/06 07:29:12;;;;;;;3.73;3.43;;;24.30;48.40;;;;;;5073158;28;20537;-66
2021/03/06 07:31:39;;;;;;;3.60;2.90;;;24.30;48.60;;;;;;5073223;28;20439;-67
2021/03/06 07:34:09;;;;;;;7.90;3.13;;;24.40;48.50;;;;;;5073071;28;20807;-66
2021/03/06 07:36:38;;;;;;;5.70;3.67;;;24.30;48.60;;;;;;5073068;28;21000;-65
2021/03/06 07:39:06;;;;;;;6.37;2.80;;;24.30;48.70;;;;;;5073159;28;20928;-66
2021/03/06 07:41:38;;;;;;;3.70;2.77;;;24.30;48.70;;;;;;5073169;28;20436;-67
2021/03/06 07:44:06;;;;;;;5.00;2.97;;;24.40;48.90;;;;;;5073082;28;20449;-65
2021/03/06 07:46:37;;;;;;;4.03;3.43;;;24.40;48.90;;;;;;5072934;28;20487;-66
2021/03/06 07:49:10;;;;;;;4.53;2.97;;;24.40;48.90;;;;;;5073155;28;20506;-66
2021/03/06 07:51:40;;;;;;;3.30;3.00;;;24.40;48.80;;;;;;5073077;28;20440;-65
2021/03/06 07:54:06;;;;;;;3.37;2.77;;;24.40;48.80;;;;;;5073121;28;20443;-69
2021/03/06 07:56:32;;;;;;;8.17;3.17;;;24.40;48.90;;;;;;5072968;28;20518;-64
2021/03/06 07:58:59;;;;;;;3.13;2.93;;;24.40;48.60;;;;;;5072928;28;20440;-64
2021/03/06 08:01:26;;;;;;;4.30;2.70;;;24.40;48.70;;;;;;5073036;28;20443;-66
2021/03/06 08:03:54;;;;;;;6.83;3.70;;;24.40;48.90;;;;;;5072915;28;20448;-65
2021/03/06 08:06:24;;;;;;;3.60;3.30;;;24.40;49.00;;;;;;5072931;28;20564;-66
2021/03/06 08:09:07;;;;;;;5.27;2.60;;;24.50;48.90;;;;;;5073039;28;20443;-67
2021/03/06 08:11:51;;;;;;;4.53;3.27;;;24.50;48.90;;;;;;5073109;28;20432;-66
2021/03/06 08:14:41;;;;;;;3.87;3.20;;;24.50;49.00;;;;;;5072836;28;20432;-67
2021/03/06 08:17:33;;;;;;;3.50;2.90;;;24.50;49.00;;;;;;5072865;28;20777;-70
2021/03/06 08:20:00;;;;;;;6.23;3.57;;;24.50;49.00;;;;;;5072770;28;20473;-68
2021/03/06 08:22:26;;;;;;;4.33;3.67;;;24.50;49.00;;;;;;5072720;28;20534;-68
2021/03/06 08:24:53;;;;;;;4.57;4.13;;;24.50;48.80;;;;;;5072493;28;20444;-68
2021/03/06 08:27:21;;;;;;;5.07;4.30;;;24.50;48.60;;;;;;5072601;28;20491;-73
2021/03/06 08:29:50;;;;;;;7.67;5.50;;;24.60;48.40;;;;;;5072784;28;20494;-66
2021/03/06 08:32:25;;;;;;;12.43;5.87;;;24.50;47.90;;;;;;5072773;28;20445;-66
2021/03/06 08:34:53;;;;;;;9.70;5.93;;;24.50;47.70;;;;;;5072587;28;20440;-66
2021/03/06 08:37:34;;;;;;;7.67;6.00;;;24.50;47.80;;;;;;5076129;28;20458;-67
2021/03/06 08:40:12;;;;;;;13.90;6.60;;;24.50;47.80;;;;;;5080920;28;20435;-73
2021/03/06 08:42:41;;;;;;;14.57;6.83;;;24.50;47.80;;;;;;5077446;28;20941;-68
2021/03/06 08:45:10;;;;;;;8.37;7.57;;;24.50;47.00;;;;;;5092368;28;20435;-67
2021/03/06 08:47:38;;;;;;;12.60;8.43;;;24.40;43.60;;;;;;5075841;28;20832;-67
2021/03/06 08:50:07;;;;;;;11.20;7.70;;;24.30;42.90;;;;;;5076048;28;20431;-67
2021/03/06 08:52:35;;;;;;;15.60;7.10;;;24.20;43.20;;;;;;5079740;28;20458;-66
2021/03/06 08:55:02;;;;;;;9.43;6.00;;;24.10;43.50;;;;;;5093677;28;20458;-66
2021/03/06 08:57:30;;;;;;;7.73;5.73;;;24.00;44.60;;;;;;5076540;28;20442;-65
2021/03/06 08:59:58;;;;;;;12.83;5.37;;;24.00;45.20;;;;;;5075508;28;20524;-67
2021/03/06 09:02:28;;;;;;;6.23;4.97;;;24.10;45.90;;;;;;5078419;28;20435;-65
2021/03/06 09:05:09;;;;;;;8.07;5.60;;;24.20;46.60;;;;;;5095380;28;20435;-66
2021/03/06 09:07:39;;;;;;;8.87;5.30;;;24.20;46.50;;;;;;5096118;28;20486;-65
2021/03/06 09:10:31;;;;;;;6.00;5.40;;;24.20;45.90;;;;;;5096076;28;20443;-64
2021/03/06 09:13:00;;;;;;;7.70;5.00;;;24.20;45.80;;;;;;5093258;28;20443;-65
2021/03/06 09:15:30;;;;;;;8.30;5.37;;;24.20;46.20;;;;;;5096009;28;21058;-64
2021/03/06 09:17:57;;;;;;;5.20;4.67;;;24.20;46.60;;;;;;5095896;28;20434;-65
2021/03/06 09:20:25;;;;;;;5.30;4.80;;;24.20;46.80;;;;;;5095852;28;20446;-66
2021/03/06 09:22:52;;;;;;;8.37;4.63;;;24.20;47.00;;;;;;5094694;28;20438;-66
2021/03/06 09:25:33;;;;;;;6.63;4.40;;;24.30;47.20;;;;;;5092354;28;20852;-66
2021/03/06 09:28:00;;;;;;;6.10;4.30;;;24.30;47.00;;;;;;5094121;28;20453;-66
2021/03/06 09:30:29;;;;;;;4.90;4.40;;;24.30;47.00;;;;;;5094764;28;20463;-66
2021/03/06 09:32:56;;;;;;;4.30;3.80;;;24.40;47.20;;;;;;5095591;28;20453;-66
2021/03/06 09:35:23;;;;;;;6.23;3.70;;;24.40;47.20;;;;;;5095571;28;20445;-66
2021/03/06 09:38:10;;;;;;;4.00;3.60;;;24.40;46.50;;;;;;5095580;28;20439;-66
2021/03/06 09:40:40;;;;;;;4.40;4.00;;;24.50;46.50;;;;;;5095331;28;20443;-65
2021/03/06 09:43:07;;;;;;;3.77;3.47;;;24.50;46.60;;;;;;5095374;28;20435;-65
2021/03/06 09:45:33;;;;;;;6.20;4.53;;;24.50;46.60;;;;;;5095198;28;20450;-66
2021/03/06 09:48:05;;;;;;;6.60;4.20;;;24.50;46.60;;;;;;5094167;28;20847;-64
2021/03/06 09:50:32;;;;;;;5.40;3.50;;;24.60;46.70;;;;;;5095366;28;20451;-64
2021/03/06 09:52:58;;;;;;;3.43;3.13;;;24.60;46.90;;;;;;5095294;28;20439;-64
2021/03/06 09:55:25;;;;;;;4.93;3.30;;;24.60;46.90;;;;;;5094902;28;20498;-65
2021/03/06 09:57:51;;;;;;;6.57;3.33;;;24.60;46.80;;;;;;5095116;28;20940;-65
2021/03/06 10:00:22;;;;;;;4.67;3.10;;;24.70;46.90;;;;;;5094916;28;20463;-64
2021/03/06 10:02:52;;;;;;;4.33;3.60;;;24.70;47.00;;;;;;5095011;28;20453;-64
2021/03/06 10:05:22;;;;;;;5.27;3.07;;;24.70;47.00;;;;;;5094825;28;20786;-64
2021/03/06 10:07:50;;;;;;;3.33;2.70;;;24.70;47.10;;;;;;5095131;28;20431;-65
2021/03/06 10:10:16;;;;;;;3.67;3.00;;;24.70;47.10;;;;;;5094833;28;20439;-65
2021/03/06 10:12:45;;;;;;;3.20;2.90;;;24.70;47.10;;;;;;5094932;28;20443;-64
2021/03/06 10:15:13;;;;;;;2.80;2.50;;;24.70;47.20;;;;;;5094746;28;20436;-64
2021/03/06 10:17:40;;;;;;;3.30;3.00;;;24.70;47.10;;;;;;5094853;28;20447;-64
2021/03/06 10:20:07;;;;;;;3.70;3.37;;;24.70;47.00;;;;;;5094619;28;20506;-64
2021/03/06 10:22:44;;;;;;;2.90;2.70;;;24.70;47.10;;;;;;5094641;28;20934;-64
2021/03/06 10:25:12;;;;;;;3.10;2.90;;;24.80;47.10;;;;;;5094489;28;20442;-64
2021/03/06 10:27:41;;;;;;;2.80;2.60;;;24.80;47.10;;;;;;5094608;28;20483;-64
2021/03/06 10:30:14;;;;;;;2.80;2.50;;;24.80;47.10;;;;;;5094620;28;20463;-64
2021/03/06 10:32:41;;;;;;;3.00;2.50;;;24.80;47.20;;;;;;5094713;28;20972;-64
2021/03/06 10:35:23;;;;;;;2.70;2.50;;;24.80;47.20;;;;;;5094413;28;20439;-64
2021/03/06 10:37:52;;;;;;;6.90;3.10;;;24.80;47.20;;;;;;5094208;28;20491;-64
2021/03/06 10:40:18;;;;;;;3.30;2.60;;;24.80;47.20;;;;;;5094372;28;20444;-64
2021/03/06 10:42:46;;;;;;;2.90;2.70;;;24.80;47.20;;;;;;5094314;28;20447;-65
2021/03/06 10:45:24;;;;;;;2.30;2.10;;;24.80;47.20;;;;;;5094226;28;20450;-66
2021/03/06 10:47:52;;;;;;;2.57;2.37;;;24.80;47.20;;;;;;5094171;28;20430;-66
2021/03/06 10:50:24;;;;;;;3.23;2.07;;;24.80;47.30;;;;;;5094203;28;20460;-66
2021/03/06 10:52:51;;;;;;;3.53;2.23;;;24.90;47.50;;;;;;5093976;28;20442;-65
2021/03/06 10:55:18;;;;;;;2.80;2.37;;;24.90;47.40;;;;;;5093823;28;20458;-65
2021/03/06 10:57:50;;;;;;;2.50;2.07;;;24.90;47.50;;;;;;5093834;28;20445;-65
2021/03/06 11:00:23;;;;;;;2.00;1.90;;;24.90;47.50;;;;;;5093814;28;20493;-66
2021/03/06 11:02:56;;;;;;;2.53;2.33;;;24.90;47.50;;;;;;5093780;28;20435;-66
2021/03/06 11:05:25;;;;;;;2.60;2.40;;;24.90;47.50;;;;;;5093767;28;20938;-65
2021/03/06 11:07:51;;;;;;;2.23;1.90;;;24.90;47.40;;;;;;5093691;28;20483;-66
2021/03/06 11:10:19;;;;;;;2.10;1.90;;;24.90;47.50;;;;;;5093811;28;20439;-66
2021/03/06 11:12:53;;;;;;;2.00;1.90;;;24.90;47.50;;;;;;5093758;28;20443;-65
2021/03/06 11:15:22;;;;;;;3.10;2.37;;;25.00;47.60;;;;;;5093741;28;20436;-65
2021/03/06 11:17:53;;;;;;;2.20;2.00;;;24.90;47.60;;;;;;5093699;28;20479;-66
2021/03/06 11:20:21;;;;;;;1.87;1.70;;;25.00;47.70;;;;;;5093639;28;20439;-66
2021/03/06 11:22:47;;;;;;;2.10;2.00;;;25.00;47.60;;;;;;5093572;28;20436;-66
2021/03/06 11:25:16;;;;;;;2.23;1.83;;;25.00;47.60;;;;;;5093522;28;20943;-66
2021/03/06 11:27:47;;;;;;;2.43;2.03;;;25.00;47.60;;;;;;5093631;28;20486;-66
2021/03/06 11:30:16;;;;;;;1.80;1.70;;;25.00;47.70;;;;;;5093230;28;20459;-66
2021/03/06 11:32:44;;;;;;;2.33;1.60;;;25.00;47.60;;;;;;5093532;28;20450;-67
2021/03/06 11:35:13;;;;;;;2.20;1.97;;;25.00;47.60;;;;;;5093518;28;20439;-66
2021/03/06 11:37:39;;;;;;;2.20;1.87;;;25.00;47.60;;;;;;5093461;28;20443;-66
2021/03/06 11:40:08;;;;;;;1.90;1.80;;;25.00;47.60;;;;;;5093379;28;20436;-66
2021/03/06 11:42:34;;;;;;;2.17;1.97;;;25.00;47.50;;;;;;5093055;28;20755;-65
2021/03/06 11:45:01;;;;;;;5.07;2.00;;;25.00;47.50;;;;;;5093189;28;20447;-65
2021/03/06 11:47:27;;;;;;;3.07;2.77;;;25.00;47.50;;;;;;5093191;28;20483;-66
2021/03/06 11:49:54;;;;;;;2.03;1.70;;;25.00;47.40;;;;;;5093374;28;20435;-66
2021/03/06 11:52:21;;;;;;;2.33;1.90;;;25.00;47.30;;;;;;5093298;28;20842;-66
2021/03/06 11:54:47;;;;;;;1.40;1.30;;;25.00;47.30;;;;;;5093053;28;20503;-65
2021/03/06 11:57:13;;;;;;;1.87;1.70;;;25.00;47.20;;;;;;5093148;28;20471;-67
2021/03/06 11:59:40;;;;;;;1.50;1.40;;;25.00;47.40;;;;;;5093136;28;20546;-66
2021/03/06 12:02:06;;;;;;;2.10;1.77;;;25.00;47.30;;;;;;5093208;28;20448;-66
2021/03/06 12:04:32;;;;;;;1.30;1.20;;;25.00;47.30;;;;;;5093186;28;20515;-65
2021/03/06 12:06:59;;;;;;;1.37;1.27;;;25.00;47.40;;;;;;5093110;28;20483;-66
2021/03/06 12:09:26;;;;;;;1.53;1.43;;;25.00;47.40;;;;;;5092918;28;20440;-66
2021/03/06 12:11:52;;;;;;;1.83;1.57;;;25.00;47.20;;;;;;5096286;28;20443;-65
2021/03/06 12:14:19;;;;;;;4.60;1.73;;;25.00;47.20;;;;;;5096944;28;20439;-66
2021/03/06 12:16:45;;;;;;;1.53;1.43;;;25.00;47.20;;;;;;5097179;28;20530;-65
2021/03/06 12:19:11;;;;;;;2.43;1.70;;;25.00;47.80;;;;;;5097080;28;20450;-66
2021/03/06 12:21:37;;;;;;;2.27;2.07;;;25.10;47.20;;;;;;5097072;28;20933;-66
2021/03/06 12:24:05;;;;;;;1.47;1.37;;;25.10;47.20;;;;;;5096904;28;20798;-65
2021/03/06 12:26:32;;;;;;;1.70;1.60;;;25.10;47.20;;;;;;5096797;28;20487;-65
2021/03/06 12:28:58;;;;;;;1.50;1.20;;;25.10;47.20;;;;;;5096813;28;20456;-65
2021/03/06 12:31:24;;;;;;;1.60;1.50;;;25.10;47.20;;;;;;5096864;28;20440;-64
2021/03/06 12:33:54;;;;;;;1.93;1.40;;;25.10;47.20;;;;;;5096848;28;20443;-66
2021/03/06 12:36:20;;;;;;;1.50;1.37;;;25.10;47.30;;;;;;5096772;28;20443;-65
2021/03/06 12:38:52;;;;;;;1.37;1.27;;;25.10;47.30;;;;;;5096668;28;20435;-66
2021/03/06 12:41:19;;;;;;;1.40;1.30;;;25.10;47.30;;;;;;5096504;28;20452;-65
2021/03/06 12:43:49;;;;;;;1.20;1.10;;;25.10;47.40;;;;;;5096606;28;20489;-66
2021/03/06 12:46:15;;;;;;;1.83;1.50;;;25.10;47.40;;;;;;5094983;28;20479;-64
2021/03/06 12:48:42;;;;;;;3.40;1.80;;;25.10;47.50;;;;;;5078457;28;20440;-64
2021/03/06 12:51:08;;;;;;;2.70;1.40;;;25.10;46.60;;;;;;5076078;28;20444;-65
2021/03/06 12:53:34;;;;;;;2.27;1.73;;;25.10;46.70;;;;;;5075934;28;20930;-65